createdAt,value
2018-05-02T00:00:03.971Z,100919.05
2018-05-02T00:03:09.213Z,100919.98
2018-05-02T00:06:14.438Z,100917.08
2018-05-02T00:09:19.533Z,100902.38
2018-05-02T00:12:26.203Z,100900.31
2018-05-02T00:15:33.132Z,100906.30
2018-05-02T00:18:39.999Z,100901.26
2018-05-02T00:21:46.785Z,100903.03
2018-05-02T00:24:52.394Z,100901.34
2018-05-02T00:27:57.593Z,100894.65
2018-05-02T00:31:03.290Z,100898.60
2018-05-02T00:34:09.512Z,100895.22
2018-05-02T00:37:16.399Z,100888.86
2018-05-02T00:40:22.627Z,100892.82
2018-05-02T00:43:28.509Z,100893.26
2018-05-02T00:46:33.709Z,100890.41
2018-05-02T00:49:38.913Z,100901.40
2018-05-02T00:52:44.117Z,100899.41
2018-05-02T00:55:50.225Z,100893.60
2018-05-02T00:58:55.984Z,100887.24
2018-05-02T01:02:02.818Z,100889.05
2018-05-02T01:05:09.849Z,100882.23
2018-05-02T01:08:15.528Z,100882.27
2018-05-02T01:11:21.560Z,100880.68
2018-05-02T01:14:26.921Z,100887.07
2018-05-02T01:17:33.070Z,100888.03
2018-05-02T01:20:38.693Z,100885.22
2018-05-02T01:23:43.624Z,100884.42
2018-05-02T01:26:48.818Z,100884.53
2018-05-02T01:29:54.045Z,100885.44
2018-05-02T01:32:59.441Z,100887.13
2018-05-02T01:36:04.305Z,100893.09
2018-05-02T01:39:10.541Z,100888.64
2018-05-02T01:42:16.370Z,100893.72
2018-05-02T01:45:21.581Z,100886.14
2018-05-02T01:48:27.289Z,100889.48
2018-05-02T01:51:32.220Z,100892.55
2018-05-02T01:54:37.422Z,100885.02
2018-05-02T01:57:43.529Z,100892.83
2018-05-02T02:00:50.089Z,100903.84
2018-05-02T02:03:56.252Z,100902.20
2018-05-02T02:07:02.409Z,100906.82
2018-05-02T02:10:08.173Z,100901.92
2018-05-02T02:13:14.633Z,100909.98
2018-05-02T02:16:20.422Z,100910.46
2018-05-02T02:19:27.445Z,100915.63
2018-05-02T02:22:33.088Z,100912.69
2018-05-02T02:25:39.245Z,100917.32
2018-05-02T02:28:46.009Z,100917.39
2018-05-02T02:31:52.161Z,100921.28
2018-05-02T02:34:58.272Z,100917.50
2018-05-02T02:38:04.617Z,100921.28
2018-05-02T02:41:10.237Z,100913.64
2018-05-02T02:44:16.348Z,100919.26
2018-05-02T02:47:22.842Z,100924.70
2018-05-02T02:50:28.640Z,100925.67
2018-05-02T02:53:35.044Z,100921.45
2018-05-02T02:56:40.885Z,100935.01
2018-05-02T02:59:46.091Z,100930.31
2018-05-02T03:02:52.616Z,100931.28
2018-05-02T03:05:58.241Z,100926.61
2018-05-02T03:09:05.116Z,100936.38
2018-05-02T03:12:10.930Z,100933.47
2018-05-02T03:15:17.070Z,100938.57
2018-05-02T03:18:22.275Z,100933.50
2018-05-02T03:21:28.397Z,100936.86
2018-05-02T03:24:34.002Z,100933.14
2018-05-02T03:27:41.185Z,100938.20
2018-05-02T03:30:47.284Z,100930.20
2018-05-02T03:33:54.313Z,100939.54
2018-05-02T03:37:00.105Z,100943.46
2018-05-02T03:40:04.994Z,100940.00
2018-05-02T03:43:12.137Z,100946.73
2018-05-02T03:46:17.959Z,100942.98
2018-05-02T03:49:24.061Z,100938.80
2018-05-02T03:52:29.669Z,100939.67
2018-05-02T03:55:34.862Z,100944.83
2018-05-02T03:58:41.960Z,100939.73
2018-05-02T04:01:59.094Z,100943.14
2018-05-02T04:05:15.182Z,100946.04
2018-05-02T04:08:21.153Z,100946.96
2018-05-02T04:11:26.780Z,100951.61
2018-05-02T04:14:31.729Z,100946.16
2018-05-02T04:17:36.933Z,100947.75
2018-05-02T04:20:43.087Z,100953.73
2018-05-02T04:23:48.691Z,100957.09
2018-05-02T04:26:54.709Z,100960.50
2018-05-02T04:30:00.161Z,100959.42
2018-05-02T04:33:05.101Z,100956.86
2018-05-02T04:36:11.638Z,100957.70
2018-05-02T04:39:17.753Z,100957.59
2018-05-02T04:42:24.641Z,100964.36
2018-05-02T04:45:30.360Z,100976.20
2018-05-02T04:48:35.625Z,100973.23
2018-05-02T04:51:40.945Z,100979.94
2018-05-02T04:54:46.863Z,100981.59
2018-05-02T04:57:52.813Z,100977.33
2018-05-02T05:00:58.842Z,100978.25
2018-05-02T05:04:04.049Z,100985.72
2018-05-02T05:07:10.198Z,100992.92
2018-05-02T05:10:16.296Z,100992.39
2018-05-02T05:13:22.411Z,101000.41
2018-05-02T05:16:28.218Z,101002.85
2018-05-02T05:19:34.373Z,101001.84
2018-05-02T05:22:39.578Z,101007.69
2018-05-02T05:25:44.826Z,101007.52
2018-05-02T05:28:51.844Z,101010.02
2018-05-02T05:31:57.979Z,101015.42
2018-05-02T05:35:04.077Z,101014.51
2018-05-02T05:38:11.085Z,101020.41
2018-05-02T05:41:17.212Z,101018.61
2018-05-02T05:44:22.418Z,101008.33
2018-05-02T05:47:29.091Z,101006.86
2018-05-02T05:50:34.693Z,101007.58
2018-05-02T05:53:40.807Z,101011.73
2018-05-02T05:56:46.005Z,101016.31
2018-05-02T05:59:51.277Z,101022.12
2018-05-02T06:02:56.482Z,101020.29
2018-05-02T06:06:01.696Z,101025.27
2018-05-02T06:09:07.998Z,101033.19
2018-05-02T06:12:13.615Z,101034.41
2018-05-02T06:15:20.639Z,101037.22
2018-05-02T06:18:26.782Z,101034.53
2018-05-02T06:21:31.977Z,101027.16
2018-05-02T06:24:37.369Z,101022.73
2018-05-02T06:27:42.596Z,101020.91
2018-05-02T06:30:50.623Z,101022.38
2018-05-02T06:33:56.469Z,101026.07
2018-05-02T06:37:02.598Z,101018.69
2018-05-02T06:40:09.111Z,101016.41
2018-05-02T06:43:15.269Z,101018.74
2018-05-02T06:46:20.469Z,101020.24
2018-05-02T06:49:27.281Z,101011.13
2018-05-02T06:52:32.467Z,101014.75
2018-05-02T06:55:38.555Z,101022.23
2018-05-02T06:58:44.665Z,101019.87
2018-05-02T07:01:49.666Z,101018.39
2018-05-02T07:04:55.772Z,101019.11
2018-05-02T07:08:01.609Z,101014.23
2018-05-02T07:11:06.812Z,101015.25
2018-05-02T07:14:12.013Z,101018.81
2018-05-02T07:17:17.211Z,101018.13
2018-05-02T07:20:23.313Z,101023.86
2018-05-02T07:23:29.424Z,101025.33
2018-05-02T07:26:35.648Z,101023.35
2018-05-02T07:29:40.846Z,101025.16
2018-05-02T07:32:47.166Z,101021.84
2018-05-02T07:35:52.449Z,101019.44
2018-05-02T07:38:58.570Z,101018.68
2018-05-02T07:42:04.247Z,101025.98
2018-05-02T07:45:09.595Z,101018.02
2018-05-02T07:48:14.790Z,101022.31
2018-05-02T07:51:19.989Z,101027.06
2018-05-02T07:54:25.192Z,101028.44
2018-05-02T07:57:31.288Z,101022.49
2018-05-02T08:00:37.111Z,101023.77
2018-05-02T08:03:42.309Z,101018.70
2018-05-02T08:06:48.845Z,101031.91
2018-05-02T08:09:55.885Z,101022.93
2018-05-02T08:13:02.030Z,101020.82
2018-05-02T08:16:09.069Z,101017.81
2018-05-02T08:19:16.173Z,101011.76
2018-05-02T08:22:22.893Z,101020.61
2018-05-02T08:25:29.921Z,101013.67
2018-05-02T08:28:36.044Z,101019.98
2018-05-02T08:31:42.159Z,101017.67
2018-05-02T08:34:47.574Z,101018.91
2018-05-02T08:37:52.773Z,101018.39
2018-05-02T08:40:57.737Z,101022.05
2018-05-02T08:44:02.618Z,101020.66
2018-05-02T08:47:08.357Z,101023.02
2018-05-02T08:50:13.285Z,101016.06
2018-05-02T08:53:18.923Z,101014.62
2018-05-02T08:56:25.854Z,101008.02
2018-05-02T08:59:31.701Z,101004.69
2018-05-02T09:02:38.543Z,101004.03
2018-05-02T09:05:43.765Z,101002.62
2018-05-02T09:08:49.883Z,100990.81
2018-05-02T09:11:56.766Z,101003.44
2018-05-02T09:15:03.086Z,101009.53
2018-05-02T09:18:08.805Z,101008.91
2018-05-02T09:21:14.754Z,101002.70
2018-05-02T09:24:20.597Z,100996.05
2018-05-02T09:27:27.737Z,101004.38
2018-05-02T09:30:34.469Z,100998.12
2018-05-02T09:33:41.513Z,100988.47
2018-05-02T09:36:48.573Z,100989.47
2018-05-02T09:39:54.422Z,100985.80
2018-05-02T09:43:00.554Z,100983.42
2018-05-02T09:46:06.903Z,100984.17
2018-05-02T09:49:12.104Z,100966.97
2018-05-02T09:52:17.592Z,100972.19
2018-05-02T09:55:22.803Z,100971.15
2018-05-02T09:58:28.236Z,100956.78
2018-05-02T10:01:35.330Z,100949.20
2018-05-02T10:04:42.373Z,100951.50
2018-05-02T10:07:48.184Z,100950.67
2018-05-02T10:10:54.105Z,100953.98
2018-05-02T10:13:59.714Z,100950.39
2018-05-02T10:17:04.680Z,100944.35
2018-05-02T10:20:09.613Z,100951.27
2018-05-02T10:23:15.342Z,100943.88
2018-05-02T10:26:21.332Z,100937.28
2018-05-02T10:29:26.686Z,100939.55
2018-05-02T10:32:32.820Z,100937.84
2018-05-02T10:35:38.034Z,100927.79
2018-05-02T10:38:44.430Z,100930.62
2018-05-02T10:41:51.181Z,100935.27
2018-05-02T10:44:57.293Z,100940.80
2018-05-02T10:48:02.913Z,100932.81
2018-05-02T10:51:09.375Z,100927.09
2018-05-02T10:54:15.393Z,100925.14
2018-05-02T10:57:20.685Z,100929.55
2018-05-02T11:00:25.953Z,100930.19
2018-05-02T11:03:31.668Z,100920.98
2018-05-02T11:06:37.167Z,100926.41
2018-05-02T11:09:42.370Z,100916.32
2018-05-02T11:12:48.999Z,100914.36
2018-05-02T11:15:54.856Z,100910.70
2018-05-02T11:18:59.449Z,100910.66
2018-05-02T11:22:04.480Z,100898.69
2018-05-02T11:25:09.865Z,100901.05
2018-05-02T11:28:15.659Z,100896.56
2018-05-02T11:31:21.007Z,100888.13
2018-05-02T11:34:27.138Z,100887.78
2018-05-02T11:37:32.344Z,100892.13
2018-05-02T11:40:38.628Z,100888.46
2018-05-02T11:43:44.845Z,100887.80
2018-05-02T11:46:50.139Z,100883.77
2018-05-02T11:49:56.309Z,100886.15
2018-05-02T11:53:01.525Z,100883.66
2018-05-02T11:56:08.576Z,100884.17
2018-05-02T11:59:14.709Z,100880.09
2018-05-02T12:02:19.916Z,100868.98
2018-05-02T12:05:25.150Z,100869.22
2018-05-02T12:08:32.209Z,100876.87
2018-05-02T12:11:39.269Z,100873.07
2018-05-02T12:14:46.241Z,100861.79
2018-05-02T12:17:53.305Z,100866.45
2018-05-02T12:21:00.447Z,100866.48
2018-05-02T12:24:06.022Z,100856.98
2018-05-02T12:27:13.079Z,100849.83
2018-05-02T12:30:19.210Z,100852.25
2018-05-02T12:33:25.234Z,100853.44
2018-05-02T12:36:32.171Z,100852.00
2018-05-02T12:39:38.221Z,100849.77
2018-05-02T12:42:45.306Z,100844.34
2018-05-02T12:45:50.514Z,100836.84
2018-05-02T12:48:55.742Z,100842.90
2018-05-02T12:52:01.963Z,100835.12
2018-05-02T12:55:07.895Z,100839.85
2018-05-02T12:58:13.302Z,100831.34
2018-05-02T13:01:18.931Z,100821.95
2018-05-02T13:04:25.069Z,100806.23
2018-05-02T13:07:30.282Z,100815.63
2018-05-02T13:10:35.491Z,100810.50
2018-05-02T13:13:42.624Z,100801.71
2018-05-02T13:16:48.454Z,100796.44
2018-05-02T13:19:54.387Z,100795.12
2018-05-02T13:23:00.535Z,100797.14
2018-05-02T13:26:06.069Z,100791.20
2018-05-02T13:29:11.198Z,100782.70
2018-05-02T13:32:18.067Z,100777.33
2018-05-02T13:35:24.169Z,100774.33
2018-05-02T13:38:30.283Z,100775.74
2018-05-02T13:41:36.815Z,100769.93
2018-05-02T13:44:43.868Z,100764.75
2018-05-02T13:47:50.091Z,100745.51
2018-05-02T13:50:55.914Z,100750.28
2018-05-02T13:54:02.083Z,100756.23
2018-05-02T13:57:07.381Z,100750.84
2018-05-02T14:00:12.592Z,100742.53
2018-05-02T14:03:18.257Z,100746.16
2018-05-02T14:06:23.465Z,100737.02
2018-05-02T14:09:29.242Z,100739.11
2018-05-02T14:12:35.352Z,100743.66
2018-05-02T14:15:40.969Z,100731.09
2018-05-02T14:18:46.210Z,100719.01
2018-05-02T14:21:51.418Z,100726.31
2018-05-02T14:24:56.634Z,100718.37
2018-05-02T14:28:01.843Z,100712.06
2018-05-02T14:31:07.059Z,100703.70
2018-05-02T14:34:13.889Z,100699.69
2018-05-02T14:37:19.712Z,100690.91
2018-05-02T14:40:25.822Z,100692.17
2018-05-02T14:43:31.461Z,100701.08
2018-05-02T14:46:37.610Z,100702.73
2018-05-02T14:49:44.657Z,100689.85
2018-05-02T14:52:51.665Z,100690.12
2018-05-02T14:55:57.799Z,100688.34
2018-05-02T14:59:03.966Z,100690.96
2018-05-02T15:02:11.101Z,100685.83
2018-05-02T15:05:17.946Z,100687.93
2018-05-02T15:08:24.105Z,100689.46
2018-05-02T15:11:30.266Z,100680.75
2018-05-02T15:14:35.502Z,100679.02
2018-05-02T15:17:40.709Z,100677.98
2018-05-02T15:20:45.693Z,100679.67
2018-05-02T15:23:50.905Z,100680.17
2018-05-02T15:26:56.580Z,100671.08
2018-05-02T15:30:02.689Z,100676.57
2018-05-02T15:33:08.599Z,100669.80
2018-05-02T15:36:13.812Z,100665.89
2018-05-02T15:39:19.016Z,100669.38
2018-05-02T15:42:25.156Z,100668.90
2018-05-02T15:45:32.292Z,100668.66
2018-05-02T15:48:37.787Z,100660.39
2018-05-02T15:51:43.513Z,100662.28
2018-05-02T15:54:48.774Z,100666.27
2018-05-02T15:57:54.031Z,100660.76
2018-05-02T16:01:01.132Z,100663.91
2018-05-02T16:04:06.696Z,100654.05
2018-05-02T16:07:12.047Z,100655.23
2018-05-02T16:10:17.289Z,100656.29
2018-05-02T16:13:22.497Z,100651.87
2018-05-02T16:16:27.764Z,100663.01
2018-05-02T16:19:32.883Z,100650.07
2018-05-02T16:22:38.097Z,100658.86
2018-05-02T16:25:43.305Z,100651.05
2018-05-02T16:28:49.433Z,100650.28
2018-05-02T16:31:56.549Z,100646.89
2018-05-02T16:35:02.376Z,100649.48
2018-05-02T16:38:07.681Z,100646.70
2018-05-02T16:41:12.894Z,100640.11
2018-05-02T16:44:18.106Z,100650.25
2018-05-02T16:47:23.069Z,100640.31
2018-05-02T16:50:28.282Z,100644.39
2018-05-02T16:53:34.069Z,100641.77
2018-05-02T16:56:40.257Z,100637.34
2018-05-02T16:59:46.518Z,100645.00
2018-05-02T17:02:51.739Z,100645.94
2018-05-02T17:05:58.102Z,100637.06
2018-05-02T17:09:03.491Z,100643.53
2018-05-02T17:12:09.639Z,100638.48
2018-05-02T17:15:14.849Z,100640.48
2018-05-02T17:18:20.103Z,100645.59
2018-05-02T17:21:25.346Z,100645.30
2018-05-02T17:24:30.713Z,100648.62
2018-05-02T17:27:35.914Z,100652.41
2018-05-02T17:30:42.029Z,100652.95
2018-05-02T17:33:47.952Z,100646.70
2018-05-02T17:36:54.368Z,100649.42
2018-05-02T17:39:59.736Z,100648.38
2018-05-02T17:43:04.637Z,100646.13
2018-05-02T17:46:10.768Z,100641.71
2018-05-02T17:49:17.920Z,100648.04
2018-05-02T17:52:24.773Z,100649.38
2018-05-02T17:55:31.602Z,100648.05
2018-05-02T17:58:38.745Z,100652.67
2018-05-02T18:01:44.604Z,100650.84
2018-05-02T18:04:51.546Z,100657.27
2018-05-02T18:07:57.362Z,100657.66
2018-05-02T18:11:03.481Z,100659.69
2018-05-02T18:14:09.634Z,100660.49
2018-05-02T18:17:15.777Z,100666.50
2018-05-02T18:20:21.894Z,100656.55
2018-05-02T18:23:27.596Z,100665.03
2018-05-02T18:26:33.713Z,100670.17
2018-05-02T18:29:38.921Z,100668.49
2018-05-02T18:32:44.555Z,100664.56
2018-05-02T18:35:50.719Z,100668.33
2018-05-02T18:38:55.925Z,100662.64
2018-05-02T18:42:02.050Z,100669.89
2018-05-02T18:45:07.679Z,100674.17
2018-05-02T18:48:12.882Z,100669.33
2018-05-02T18:51:19.509Z,100674.85
2018-05-02T18:54:25.689Z,100674.81
2018-05-02T18:57:31.723Z,100667.16
2018-05-02T19:00:37.837Z,100672.64
2018-05-02T19:03:43.473Z,100681.61
2018-05-02T19:06:50.606Z,100670.77
2018-05-02T19:09:56.429Z,100671.59
2018-05-02T19:13:03.370Z,100669.83
2018-05-02T19:16:10.486Z,100668.53
2018-05-02T19:19:21.705Z,100677.03
2018-05-02T19:22:26.917Z,100680.42
2018-05-02T19:25:37.385Z,100671.01
2018-05-02T19:28:43.404Z,100675.64
2018-05-02T19:31:54.588Z,100674.75
2018-05-02T19:35:00.533Z,100674.67
2018-05-02T19:38:06.653Z,100672.92
2018-05-02T19:41:18.027Z,100669.84
2018-05-02T19:44:23.854Z,100665.45
2018-05-02T19:47:30.894Z,100669.66
2018-05-02T19:50:36.509Z,100665.25
2018-05-02T19:53:42.732Z,100669.41
2018-05-02T19:56:49.489Z,100670.66
2018-05-02T19:59:55.600Z,100661.97
2018-05-02T20:03:01.193Z,100675.60
2018-05-02T20:06:07.037Z,100668.30
2018-05-02T20:09:17.522Z,100673.22
2018-05-02T20:12:28.964Z,100672.26
2018-05-02T20:15:36.021Z,100671.58
2018-05-02T20:18:42.193Z,100672.81
2018-05-02T20:21:47.405Z,100661.97
2018-05-02T20:24:52.695Z,100661.36
2018-05-02T20:27:58.801Z,100668.08
2018-05-02T20:31:04.009Z,100670.52
2018-05-02T20:34:09.223Z,100667.48
2018-05-02T20:37:14.844Z,100667.51
2018-05-02T20:40:20.057Z,100663.92
2018-05-02T20:43:25.264Z,100655.41
2018-05-02T20:46:31.863Z,100656.55
2018-05-02T20:49:38.061Z,100650.57
2018-05-02T20:52:44.175Z,100645.28
2018-05-02T20:55:51.001Z,100646.89
2018-05-02T20:58:57.177Z,100648.03
2018-05-02T21:02:02.390Z,100651.50
2018-05-02T21:05:07.785Z,100647.03
2018-05-02T21:08:13.641Z,100644.13
2018-05-02T21:11:19.437Z,100641.25
2018-05-02T21:14:26.186Z,100637.56
2018-05-02T21:17:32.021Z,100635.12
2018-05-02T21:20:37.313Z,100643.35
2018-05-02T21:23:42.678Z,100641.78
2018-05-02T21:26:49.354Z,100641.80
2018-05-02T21:29:55.546Z,100642.80
2018-05-02T21:33:02.409Z,100636.75
2018-05-02T21:36:08.526Z,100634.48
2018-05-02T21:39:15.351Z,100632.61
2018-05-02T21:42:21.481Z,100632.23
2018-05-02T21:45:27.619Z,100632.45
2018-05-02T21:48:33.543Z,100631.45
2018-05-02T21:51:40.394Z,100636.08
2018-05-02T21:54:46.548Z,100640.63
2018-05-02T21:57:51.808Z,100634.08
2018-05-02T22:00:57.027Z,100631.88
2018-05-02T22:04:03.677Z,100630.80
2018-05-02T22:07:10.433Z,100626.27
2018-05-02T22:10:16.044Z,100628.59
2018-05-02T22:13:21.254Z,100624.44
2018-05-02T22:16:26.868Z,100618.75
2018-05-02T22:19:32.912Z,100621.94
2018-05-02T22:22:39.014Z,100621.76
2018-05-02T22:25:44.654Z,100618.53
2018-05-02T22:28:50.600Z,100615.59
2018-05-02T22:31:57.595Z,100616.06
2018-05-02T22:35:03.724Z,100615.88
2018-05-02T22:38:10.536Z,100615.20
2018-05-02T22:41:17.657Z,100618.11
2018-05-02T22:44:23.553Z,100623.73
2018-05-02T22:47:29.421Z,100618.83
2018-05-02T22:50:36.450Z,100626.75
2018-05-02T22:53:42.589Z,100617.02
2018-05-02T22:56:48.733Z,100619.17
2018-05-02T22:59:54.841Z,100611.81
2018-05-02T23:03:00.982Z,100606.69
2018-05-02T23:06:06.181Z,100604.91
2018-05-02T23:09:11.807Z,100597.56
2018-05-02T23:12:17.784Z,100599.00
2018-05-02T23:15:24.645Z,100595.91
2018-05-02T23:18:30.768Z,100587.50
2018-05-02T23:21:36.901Z,100589.30
2018-05-02T23:24:42.754Z,100581.73
2018-05-02T23:27:48.880Z,100581.43
2018-05-02T23:30:54.294Z,100583.27
2018-05-02T23:33:59.506Z,100583.91
2018-05-02T23:37:04.485Z,100575.35
2018-05-02T23:40:09.718Z,100568.87
2018-05-02T23:43:14.918Z,100569.93
2018-05-02T23:46:20.120Z,100567.10
2018-05-02T23:49:25.365Z,100564.77
2018-05-02T23:52:30.589Z,100564.27
2018-05-02T23:55:36.701Z,100562.46
2018-05-02T23:58:42.817Z,100554.92
